Time,TemperatureF,DewpointF,PressureIn,WindDirection,WindDirectionDegrees,WindSpeedMPH,WindSpeedGustMPH,Humidity,HourlyPrecipIn,Conditions,Clouds,dailyrainin,SoftwareType,DateUTC
2013-05-26 00:13:00,55.2,52.0,30.16,SSE,165,0.0,0.0,89,0.00,,,0.00,weatherlink.com 1.10,2013-05-26 04:13:00,
2013-05-26 00:28:00,54.7,52.0,30.17,SSE,165,0.0,0.0,90,0.00,,,0.00,weatherlink.com 1.10,2013-05-26 04:28:00,
2013-05-26 00:43:00,54.4,52.0,30.17,SSE,165,0.0,0.0,90,0.00,,,0.00,weatherlink.com 1.10,2013-05-26 04:43:00,
2013-05-26 00:58:00,54.1,51.0,30.18,SSE,165,0.0,0.0,90,0.00,,,0.00,weatherlink.com 1.10,2013-05-26 04:58:00,
2013-05-26 01:13:00,54.1,52.0,30.18,SSE,165,0.0,0.0,92,0.00,,,0.00,weatherlink.com 1.10,2013-05-26 05:13:00,
2013-05-26 01:28:00,54.6,52.0,30.18,SSE,165,0.0,0.0,92,0.00,,,0.00,weatherlink.com 1.10,2013-05-26 05:28:00,
2013-05-26 01:43:00,54.9,52.0,30.18,SSE,165,0.0,0.0,91,0.00,,,0.00,weatherlink.com 1.10,2013-05-26 05:43:00,
2013-05-26 01:58:00,55.3,51.0,30.17,SSE,165,0.0,0.0,85,0.00,,,0.00,weatherlink.com 1.10,2013-05-26 05:58:00,
2013-05-26 02:13:00,56.0,49.0,30.17,SSE,164,0.0,1.0,77,0.00,,,0.00,weatherlink.com 1.10,2013-05-26 06:13:00,
2013-05-26 02:28:00,57.7,46.0,30.18,ENE,59,0.0,2.0,66,0.00,,,0.00,weatherlink.com 1.10,2013-05-26 06:28:00,
2013-05-26 02:43:00,59.1,48.0,30.18,NE,53,1.0,2.0,67,0.00,,,0.00,weatherlink.com 1.10,2013-05-26 06:43:00,
2013-05-26 02:58:00,60.3,44.0,30.17,East,86,2.0,3.0,56,0.00,,,0.00,weatherlink.com 1.10,2013-05-26 06:58:00,
2013-05-26 03:13:00,61.2,44.0,30.17,NE,47,0.0,3.0,53,0.00,,,0.00,weatherlink.com 1.10,2013-05-26 07:13:00,
2013-05-26 03:28:00,61.2,44.0,30.18,NNW,331,0.0,3.0,53,0.00,,,0.00,weatherlink.com 1.10,2013-05-26 07:28:00,
2013-05-26 03:43:00,60.9,44.0,30.17,NNW,331,0.0,1.0,55,0.00,,,0.00,weatherlink.com 1.10,2013-05-26 07:43:00,
2013-05-26 03:58:00,60.5,45.0,30.17,NNW,331,0.0,1.0,57,0.00,,,0.00,weatherlink.com 1.10,2013-05-26 07:58:00,
2013-05-26 04:13:00,60.1,44.0,30.17,NNE,27,0.0,1.0,56,0.00,,,0.00,weatherlink.com 1.10,2013-05-26 08:13:00,
2013-05-26 04:28:00,59.7,44.0,30.18,South,169,0.0,5.0,57,0.00,,,0.00,weatherlink.com 1.10,2013-05-26 08:28:00,
2013-05-26 04:59:00,59.0,44.0,30.19,NE,35,0.0,0.0,59,0.00,,,0.00,weatherlink.com 1.10,2013-05-26 08:59:00,
2013-05-26 05:14:00,58.6,45.0,30.19,NNE,33,0.0,1.0,60,0.00,,,0.00,weatherlink.com 1.10,2013-05-26 09:14:00,
2013-05-26 05:29:00,58.1,45.0,30.20,NNE,21,0.0,2.0,61,0.00,,,0.00,weatherlink.com 1.10,2013-05-26 09:29:00,
2013-05-26 05:44:00,57.6,44.0,30.20,NNE,24,0.0,1.0,62,0.00,,,0.00,weatherlink.com 1.10,2013-05-26 09:44:00,
2013-05-26 05:59:00,57.3,45.0,30.20,NNE,24,0.0,0.0,64,0.00,,,0.00,weatherlink.com 1.10,2013-05-26 09:59:00,
2013-05-26 06:14:00,57.1,44.0,30.21,NE,38,1.0,2.0,63,0.00,,,0.00,weatherlink.com 1.10,2013-05-26 10:14:00,
2013-05-26 06:29:00,57.2,45.0,30.23,NNE,19,0.0,1.0,64,0.00,,,0.00,weatherlink.com 1.10,2013-05-26 10:29:00,
2013-05-26 06:44:00,57.2,45.0,30.23,NNE,30,0.0,1.0,63,0.00,,,0.00,weatherlink.com 1.10,2013-05-26 10:44:00,
2013-05-26 06:59:00,57.3,45.0,30.24,NNE,30,0.0,1.0,63,0.00,,,0.00,weatherlink.com 1.10,2013-05-26 10:59:00,
2013-05-26 07:14:00,57.5,45.0,30.24,NNE,29,0.0,1.0,64,0.00,,,0.00,weatherlink.com 1.10,2013-05-26 11:14:00,
2013-05-26 07:29:00,57.5,46.0,30.25,NNE,30,0.0,1.0,66,0.00,,,0.00,weatherlink.com 1.10,2013-05-26 11:29:00,
2013-05-26 07:44:00,57.5,47.0,30.24,NNE,30,0.0,0.0,67,0.00,,,0.00,weatherlink.com 1.10,2013-05-26 11:44:00,
2013-05-26 07:59:00,57.6,47.0,30.25,NNE,30,0.0,1.0,68,0.00,,,0.00,weatherlink.com 1.10,2013-05-26 11:59:00,
2013-05-26 08:14:00,58.1,48.0,30.25,NNE,30,0.0,1.0,68,0.00,,,0.00,weatherlink.com 1.10,2013-05-26 12:14:00,
2013-05-26 08:29:00,58.5,49.0,30.25,NNE,30,0.0,0.0,70,0.00,,,0.00,weatherlink.com 1.10,2013-05-26 12:29:00,
2013-05-26 08:44:00,59.0,49.0,30.26,NNE,30,0.0,1.0,70,0.00,,,0.00,weatherlink.com 1.10,2013-05-26 12:44:00,
2013-05-26 08:59:00,59.6,50.0,30.26,NNE,29,0.0,1.0,70,0.00,,,0.00,weatherlink.com 1.10,2013-05-26 12:59:00,
2013-05-26 09:14:00,60.0,49.0,30.26,NNE,32,0.0,1.0,67,0.00,,,0.00,weatherlink.com 1.10,2013-05-26 13:14:00,
2013-05-26 09:29:00,60.4,50.0,30.26,ENE,60,0.0,1.0,68,0.00,,,0.00,weatherlink.com 1.10,2013-05-26 13:29:00,
2013-05-26 09:44:00,61.2,50.0,30.26,ENE,59,0.0,2.0,66,0.00,,,0.00,weatherlink.com 1.10,2013-05-26 13:44:00,
2013-05-26 09:59:00,62.3,48.0,30.27,NE,52,0.0,2.0,60,0.00,,,0.00,weatherlink.com 1.10,2013-05-26 13:59:00,
2013-05-26 10:14:00,63.1,46.0,30.27,East,89,0.0,3.0,55,0.00,,,0.00,weatherlink.com 1.10,2013-05-26 14:14:00,
2013-05-26 10:29:00,63.6,46.0,30.27,East,92,1.0,2.0,54,0.00,,,0.00,weatherlink.com 1.10,2013-05-26 14:29:00,
2013-05-26 10:44:00,64.0,47.0,30.27,North,351,1.0,3.0,54,0.00,,,0.00,weatherlink.com 1.10,2013-05-26 14:44:00,
2013-05-26 10:59:00,64.5,47.0,30.26,NE,41,0.0,2.0,54,0.00,,,0.00,weatherlink.com 1.10,2013-05-26 14:59:00,
2013-05-26 11:14:00,64.9,46.0,30.26,North,350,0.0,4.0,51,0.00,,,0.00,weatherlink.com 1.10,2013-05-26 15:14:00,
2013-05-26 11:29:00,64.9,49.0,30.26,ENE,59,0.0,2.0,56,0.00,,,0.00,weatherlink.com 1.10,2013-05-26 15:29:00,
2013-05-26 11:44:00,65.2,46.0,30.26,ENE,59,0.0,1.0,51,0.00,,,0.00,weatherlink.com 1.10,2013-05-26 15:44:00,
2013-05-26 11:59:00,65.9,48.0,30.25,NE,55,1.0,1.0,52,0.00,,,0.00,weatherlink.com 1.10,2013-05-26 15:59:00,
2013-05-26 12:14:00,66.5,48.0,30.25,East,96,0.0,3.0,52,0.00,,,0.00,weatherlink.com 1.10,2013-05-26 16:14:00,
2013-05-26 12:29:00,66.8,46.0,30.25,SSW,211,0.0,3.0,47,0.00,,,0.00,weatherlink.com 1.10,2013-05-26 16:29:00,
2013-05-26 12:44:00,66.8,45.0,30.25,West,280,0.0,2.0,46,0.00,,,0.00,weatherlink.com 1.10,2013-05-26 16:44:00,
2013-05-26 12:59:00,66.5,45.0,30.25,West,259,0.0,1.0,47,0.00,,,0.00,weatherlink.com 1.10,2013-05-26 16:59:00,
2013-05-26 13:14:00,67.8,47.0,30.24,WSW,252,0.0,2.0,48,0.00,,,0.00,weatherlink.com 1.10,2013-05-26 17:14:00,
2013-05-26 13:30:00,68.4,48.0,30.24,WSW,250,0.0,0.0,48,0.00,,,0.00,weatherlink.com 1.10,2013-05-26 17:30:00,
2013-05-26 13:45:00,69.2,47.0,30.23,NNW,348,0.0,0.0,45,0.00,,,0.00,weatherlink.com 1.10,2013-05-26 17:45:00,
2013-05-26 14:00:00,70.4,49.0,30.23,ESE,120,1.0,3.0,46,0.00,,,0.00,weatherlink.com 1.10,2013-05-26 18:00:00,
2013-05-26 14:15:00,72.1,49.0,30.22,SE,126,0.0,3.0,44,0.00,,,0.00,weatherlink.com 1.10,2013-05-26 18:15:00,
2013-05-26 14:30:00,72.9,50.0,30.21,SE,130,1.0,3.0,45,0.00,,,0.00,weatherlink.com 1.10,2013-05-26 18:30:00,
2013-05-26 14:45:00,73.2,49.0,30.20,South,173,1.0,5.0,42,0.00,,,0.00,weatherlink.com 1.10,2013-05-26 18:45:00,
2013-05-26 15:00:00,74.0,48.0,30.20,SW,217,2.0,3.0,40,0.00,,,0.00,weatherlink.com 1.10,2013-05-26 19:00:00,
2013-05-26 15:15:00,74.9,48.0,30.19,West,280,1.0,2.0,39,0.00,,,0.00,weatherlink.com 1.10,2013-05-26 19:15:00,
2013-05-26 15:30:00,75.1,50.0,30.19,West,281,0.0,4.0,41,0.00,,,0.00,weatherlink.com 1.10,2013-05-26 19:30:00,
2013-05-26 15:45:00,74.9,50.0,30.18,SE,139,0.0,4.0,42,0.00,,,0.00,weatherlink.com 1.10,2013-05-26 19:45:00,
2013-05-26 16:00:00,75.6,50.0,30.18,SE,125,2.0,6.0,40,0.00,,,0.00,weatherlink.com 1.10,2013-05-26 20:00:00,
2013-05-26 16:15:00,75.1,51.0,30.18,SSE,159,3.0,5.0,43,0.00,,,0.00,weatherlink.com 1.10,2013-05-26 20:15:00,
2013-05-26 16:30:00,75.9,50.0,30.17,West,267,1.0,5.0,41,0.00,,,0.00,weatherlink.com 1.10,2013-05-26 20:30:00,
2013-05-26 16:45:00,75.8,53.0,30.17,SW,229,2.0,4.0,45,0.00,,,0.00,weatherlink.com 1.10,2013-05-26 20:45:00,
2013-05-26 17:00:00,75.9,50.0,30.17,WNW,296,0.0,4.0,41,0.00,,,0.00,weatherlink.com 1.10,2013-05-26 21:00:00,
2013-05-26 17:15:00,76.5,49.0,30.17,SE,132,1.0,3.0,38,0.00,,,0.00,weatherlink.com 1.10,2013-05-26 21:15:00,
2013-05-26 17:30:00,77.0,50.0,30.17,WSW,253,2.0,3.0,39,0.00,,,0.00,weatherlink.com 1.10,2013-05-26 21:30:00,
2013-05-26 17:45:00,77.1,50.0,30.16,SE,146,2.0,5.0,38,0.00,,,0.00,weatherlink.com 1.10,2013-05-26 21:45:00,
2013-05-26 18:00:00,76.8,50.0,30.16,SW,234,1.0,3.0,39,0.00,,,0.00,weatherlink.com 1.10,2013-05-26 22:00:00,
2013-05-26 18:15:00,76.5,51.0,30.16,WNW,286,0.0,4.0,41,0.00,,,0.00,weatherlink.com 1.10,2013-05-26 22:15:00,
2013-05-26 18:30:00,76.8,51.0,30.16,SE,127,0.0,3.0,41,0.00,,,0.00,weatherlink.com 1.10,2013-05-26 22:30:00,
2013-05-26 18:45:00,76.1,53.0,30.16,North,355,0.0,2.0,44,0.00,,,0.00,weatherlink.com 1.10,2013-05-26 22:45:00,
2013-05-26 19:00:00,76.7,52.0,30.16,NW,311,0.0,1.0,43,0.00,,,0.00,weatherlink.com 1.10,2013-05-26 23:00:00,
2013-05-26 19:15:00,76.3,55.0,30.16,NW,311,0.0,2.0,48,0.00,,,0.00,weatherlink.com 1.10,2013-05-26 23:15:00,
2013-05-26 19:30:00,75.6,57.0,30.16,NW,311,0.0,0.0,52,0.00,,,0.00,weatherlink.com 1.10,2013-05-26 23:30:00,
2013-05-26 19:45:00,73.3,56.0,30.16,NW,311,0.0,0.0,55,0.00,,,0.00,weatherlink.com 1.10,2013-05-26 23:45:00,
2013-05-26 20:00:00,70.6,57.0,30.16,NW,311,0.0,0.0,63,0.00,,,0.00,weatherlink.com 1.10,2013-05-27 00:00:00,
2013-05-26 20:15:00,68.4,57.0,30.16,NW,311,0.0,0.0,68,0.00,,,0.00,weatherlink.com 1.10,2013-05-27 00:15:00,
2013-05-26 20:30:00,66.2,57.0,30.17,NW,311,0.0,0.0,73,0.00,,,0.00,weatherlink.com 1.10,2013-05-27 00:30:00,
2013-05-26 20:45:00,64.3,57.0,30.17,NW,311,0.0,0.0,77,0.00,,,0.00,weatherlink.com 1.10,2013-05-27 00:45:00,
2013-05-26 21:00:00,62.9,57.0,30.17,NW,311,0.0,0.0,80,0.00,,,0.00,weatherlink.com 1.10,2013-05-27 01:00:00,
2013-05-26 21:15:00,61.4,57.0,30.17,NW,311,0.0,0.0,84,0.00,,,0.00,weatherlink.com 1.10,2013-05-27 01:15:00,
2013-05-26 21:30:00,60.5,56.0,30.18,NW,311,0.0,0.0,86,0.00,,,0.00,weatherlink.com 1.10,2013-05-27 01:30:00,
2013-05-26 21:45:00,59.6,56.0,30.18,NW,311,0.0,0.0,87,0.00,,,0.00,weatherlink.com 1.10,2013-05-27 01:45:00,
2013-05-26 22:00:00,59.0,56.0,30.18,NW,311,0.0,0.0,88,0.00,,,0.00,weatherlink.com 1.10,2013-05-27 02:00:00,
2013-05-26 22:15:00,58.3,55.0,30.19,NW,311,0.0,0.0,89,0.00,,,0.00,weatherlink.com 1.10,2013-05-27 02:15:00,
2013-05-26 22:30:00,57.7,55.0,30.19,NW,311,0.0,0.0,90,0.00,,,0.00,weatherlink.com 1.10,2013-05-27 02:30:00,
2013-05-26 22:45:00,57.3,55.0,30.19,NW,311,0.0,0.0,91,0.00,,,0.00,weatherlink.com 1.10,2013-05-27 02:45:00,
2013-05-26 23:00:00,57.0,55.0,30.19,NW,311,0.0,0.0,91,0.00,,,0.00,weatherlink.com 1.10,2013-05-27 03:00:00,
2013-05-26 23:15:00,56.6,54.0,30.20,NW,311,0.0,0.0,91,0.00,,,0.00,weatherlink.com 1.10,2013-05-27 03:15:00,
2013-05-26 23:30:00,56.2,54.0,30.20,NW,311,0.0,0.0,92,0.00,,,0.00,weatherlink.com 1.10,2013-05-27 03:30:00,
2013-05-26 23:45:00,56.2,54.0,30.20,NW,311,0.0,0.0,92,0.00,,,0.00,weatherlink.com 1.10,2013-05-27 03:45:00,